Time;durP1;ratioP1;P1;durP2;ratioP2;P2;SDS_P1;SDS_P2;PMS_P1;PMS_P2;Temp;Humidity;BMP_temperature;BMP_pressure;BME280_temperature;BME280_humidity;BME280_pressure;Samples;Min_cycle;Max_cycle;Signal;HPM_P1;HPM_P2
2022/12/26 05:10:27;;;;;;;1999.90;999.90;;;11.10;99.90;;;;;;6366399;22;20072;-76
2022/12/26 05:12:54;;;;;;;1999.90;999.90;;;11.20;99.90;;;;;;6350216;22;20031;-75
2022/12/26 05:15:20;;;;;;;1999.90;999.90;;;11.20;99.90;;;;;;6349755;22;20007;-75
2022/12/26 05:29:02;;;;;;;1999.90;999.90;;;11.40;99.90;;;;;;6377851;22;20010;-75
2022/12/26 05:31:29;;;;;;;1999.90;999.90;;;11.40;99.90;;;;;;6349457;22;20042;-75
2022/12/26 05:34:07;;;;;;;1999.90;999.90;;;11.40;99.90;;;;;;6349523;22;20354;-75
2022/12/26 05:36:39;;;;;;;1999.90;999.90;;;11.40;99.90;;;;;;6377708;22;20007;-75
2022/12/26 05:39:05;;;;;;;1999.90;999.90;;;11.40;99.90;;;;;;6349692;22;20007;-77
2022/12/26 05:41:31;;;;;;;1999.90;999.90;;;11.30;99.90;;;;;;6349433;22;20007;-75
2022/12/26 05:43:56;;;;;;;1999.90;999.90;;;11.30;99.90;;;;;;6377690;22;20418;-76
2022/12/26 05:46:22;;;;;;;1999.90;999.90;;;11.30;99.90;;;;;;6377304;22;20409;-75
2022/12/26 05:48:47;;;;;;;1999.90;999.90;;;11.30;99.90;;;;;;6377055;22;20030;-75
2022/12/26 05:51:13;;;;;;;1999.90;999.90;;;11.20;99.90;;;;;;6377429;22;20038;-77
2022/12/26 05:53:39;;;;;;;1999.90;999.90;;;11.20;99.90;;;;;;6349366;22;20003;-75
2022/12/26 05:56:11;;;;;;;1999.90;999.90;;;11.20;99.90;;;;;;6377608;22;20007;-75
2022/12/26 05:58:37;;;;;;;1999.90;999.90;;;11.20;99.90;;;;;;6377754;22;20006;-75
2022/12/26 06:01:09;;;;;;;1999.90;999.90;;;11.10;99.90;;;;;;6377242;22;20011;-75
2022/12/26 06:03:36;;;;;;;1999.90;999.90;;;11.20;99.90;;;;;;6349621;22;20011;-75
2022/12/26 06:06:02;;;;;;;1999.90;999.90;;;11.10;99.90;;;;;;6349289;22;20037;-75
2022/12/26 06:08:28;;;;;;;1999.90;999.90;;;11.00;99.90;;;;;;6377659;22;20014;-75
2022/12/26 06:10:53;;;;;;;1999.90;999.90;;;11.00;99.90;;;;;;6349403;22;20010;-75
2022/12/26 06:13:19;;;;;;;1999.90;999.90;;;10.90;99.90;;;;;;6377454;22;20018;-75
2022/12/26 06:15:44;;;;;;;1999.90;999.90;;;10.80;99.90;;;;;;6377683;22;20021;-75
2022/12/26 06:18:10;;;;;;;1999.90;999.90;;;10.80;99.90;;;;;;6349209;22;20030;-75
2022/12/26 06:20:38;;;;;;;1999.90;999.90;;;10.70;99.90;;;;;;6377204;22;20007;-75
2022/12/26 06:23:04;;;;;;;1999.90;999.90;;;10.70;99.90;;;;;;6377631;22;19999;-75
2022/12/26 06:25:30;;;;;;;1999.90;999.90;;;10.70;99.90;;;;;;6377591;22;20006;-75
2022/12/26 06:27:55;;;;;;;1999.90;999.90;;;10.70;99.90;;;;;;6349123;22;20088;-75
2022/12/26 06:30:21;;;;;;;1999.90;999.90;;;10.80;99.90;;;;;;6377240;22;20114;-75
2022/12/26 06:32:46;;;;;;;1999.90;999.90;;;10.70;99.90;;;;;;6349221;22;20003;-75
2022/12/26 06:35:12;;;;;;;1999.90;999.90;;;10.80;99.90;;;;;;6377436;22;20077;-75
2022/12/26 06:37:38;;;;;;;1999.90;999.90;;;10.80;99.90;;;;;;6349222;22;20489;-75
2022/12/26 06:40:04;;;;;;;1999.90;999.90;;;10.70;99.90;;;;;;6349280;22;20029;-75
2022/12/26 06:42:30;;;;;;;1999.90;999.90;;;10.70;99.90;;;;;;6376822;22;20006;-75
2022/12/26 06:44:55;;;;;;;1999.90;999.90;;;10.70;99.90;;;;;;6377167;22;20361;-75
2022/12/26 06:47:21;;;;;;;1999.90;999.90;;;10.80;99.90;;;;;;6377354;22;20007;-75
2022/12/26 06:49:46;;;;;;;1999.90;999.90;;;10.90;99.90;;;;;;6349328;22;20018;-75
2022/12/26 06:52:13;;;;;;;1999.90;999.90;;;10.90;99.90;;;;;;6349052;22;19999;-75
2022/12/26 06:54:39;;;;;;;1999.90;999.90;;;11.00;99.90;;;;;;6349182;22;20013;-75
2022/12/26 06:57:05;;;;;;;1999.90;999.90;;;11.00;99.90;;;;;;6377239;22;20014;-75
2022/12/26 06:59:30;;;;;;;1999.90;999.90;;;10.90;99.90;;;;;;6349003;22;20007;-75
2022/12/26 07:01:56;;;;;;;1999.90;999.90;;;10.90;99.90;;;;;;6348575;22;20011;-76
2022/12/26 07:04:21;;;;;;;1999.90;999.90;;;10.90;99.90;;;;;;6377130;22;20450;-75
2022/12/26 07:06:47;;;;;;;1999.90;999.90;;;10.90;99.90;;;;;;6377435;22;20430;-75
2022/12/26 07:09:16;;;;;;;1999.90;999.90;;;11.00;99.90;;;;;;6348768;22;20334;-76
2022/12/26 07:11:48;;;;;;;1999.90;999.90;;;11.00;99.90;;;;;;6376943;22;20039;-75
2022/12/26 07:14:14;;;;;;;1999.90;999.90;;;11.10;99.90;;;;;;6349009;22;20017;-75
2022/12/26 07:16:41;;;;;;;1999.90;999.90;;;11.00;99.90;;;;;;6376905;22;20038;-76
2022/12/26 07:19:09;;;;;;;1999.90;999.90;;;10.90;99.90;;;;;;6348701;22;20017;-76
2022/12/26 07:21:35;;;;;;;1999.90;999.90;;;10.60;99.90;;;;;;6348823;22;20476;-75
2022/12/26 07:24:01;;;;;;;1999.90;999.90;;;10.40;99.90;;;;;;6377020;22;20003;-76
2022/12/26 07:26:26;;;;;;;1999.90;999.90;;;10.10;99.90;;;;;;6377054;22;20014;-75
2022/12/26 07:28:56;;;;;;;1999.90;999.90;;;10.00;99.90;;;;;;6377131;22;20003;-76
2022/12/26 07:31:23;;;;;;;1999.90;999.90;;;9.90;99.90;;;;;;6376573;22;20109;-77
2022/12/26 07:33:53;;;;;;;1999.90;999.90;;;9.80;99.90;;;;;;6377044;22;20090;-75
2022/12/26 07:36:19;;;;;;;1999.90;999.90;;;9.80;99.90;;;;;;6376804;22;20011;-75
2022/12/26 07:38:46;;;;;;;1999.90;999.90;;;9.70;99.90;;;;;;6376801;22;20003;-75
2022/12/26 07:43:56;;;;;;;1999.90;999.90;;;9.70;99.90;;;;;;6376890;22;20003;-75
2022/12/26 07:46:21;;;;;;;1999.90;999.90;;;9.60;99.90;;;;;;6348164;22;20011;-75
2022/12/26 07:48:47;;;;;;;1999.90;999.90;;;9.60;99.90;;;;;;6348784;22;20057;-75
2022/12/26 07:51:12;;;;;;;1999.90;999.90;;;9.60;99.90;;;;;;6348430;22;20010;-75
2022/12/26 07:53:38;;;;;;;1999.90;999.90;;;9.60;99.90;;;;;;6376696;22;20003;-75
2022/12/26 07:56:04;;;;;;;1999.90;999.90;;;9.50;99.90;;;;;;6347949;22;20007;-75
2022/12/26 07:58:30;;;;;;;1999.90;999.90;;;9.60;99.90;;;;;;6376453;22;20069;-75
2022/12/26 08:00:58;;;;;;;1999.90;999.90;;;9.60;99.90;;;;;;6376077;22;19999;-75
2022/12/26 08:03:24;;;;;;;1999.90;999.90;;;9.50;99.90;;;;;;6376620;22;20007;-77
2022/12/26 08:05:50;;;;;;;1999.90;999.90;;;9.60;99.90;;;;;;6348131;22;20076;-75
2022/12/26 08:08:16;;;;;;;1999.90;999.90;;;9.60;99.90;;;;;;6379405;22;20003;-77
2022/12/26 08:10:42;;;;;;;1999.90;999.90;;;9.60;99.90;;;;;;6380089;22;20074;-77
2022/12/26 08:13:07;;;;;;;1999.90;999.90;;;9.60;99.90;;;;;;6381398;22;20482;-77
2022/12/26 08:15:33;;;;;;;1999.90;999.90;;;9.70;99.90;;;;;;6381548;22;20081;-77
2022/12/26 08:17:59;;;;;;;1999.90;999.90;;;9.70;99.90;;;;;;6381162;22;20002;-77
2022/12/26 08:20:24;;;;;;;1999.90;999.90;;;9.70;99.90;;;;;;6381108;22;20410;-77
2022/12/26 08:22:50;;;;;;;1999.90;999.90;;;9.70;99.90;;;;;;6353504;22;20496;-77
2022/12/26 08:25:16;;;;;;;1999.90;999.90;;;9.70;99.90;;;;;;6353868;22;20014;-77
2022/12/26 08:27:41;;;;;;;1999.90;999.90;;;9.70;99.90;;;;;;6381525;22;20006;-78
2022/12/26 08:30:08;;;;;;;1999.90;999.90;;;9.70;99.90;;;;;;6382431;22;20028;-77
2022/12/26 08:32:33;;;;;;;1999.90;999.90;;;9.70;99.90;;;;;;6381361;22;20010;-77
2022/12/26 08:34:59;;;;;;;1999.90;999.90;;;9.70;99.90;;;;;;6381649;22;20068;-77
2022/12/26 08:37:24;;;;;;;1999.90;999.90;;;9.80;99.90;;;;;;6352799;22;20011;-77
2022/12/26 08:39:52;;;;;;;1999.90;999.90;;;9.80;99.90;;;;;;6380558;22;20011;-78
2022/12/26 08:42:18;;;;;;;1999.90;999.90;;;9.80;99.90;;;;;;6381037;22;20076;-78
2022/12/26 08:44:44;;;;;;;1999.90;999.90;;;9.80;99.90;;;;;;6381569;22;20011;-78
2022/12/26 08:47:10;;;;;;;1999.90;999.90;;;9.80;99.90;;;;;;6353240;22;20443;-77
2022/12/26 08:49:35;;;;;;;1999.90;999.90;;;9.80;99.90;;;;;;6382564;22;20011;-78
2022/12/26 08:52:01;;;;;;;1999.90;999.90;;;9.80;99.90;;;;;;6379462;22;20115;-78
2022/12/26 08:54:26;;;;;;;1999.90;999.90;;;9.80;99.90;;;;;;6377886;22;20019;-76
2022/12/26 08:56:52;;;;;;;1999.90;999.90;;;9.80;99.90;;;;;;6349520;22;20449;-76
2022/12/26 08:59:17;;;;;;;1999.90;999.90;;;9.90;99.90;;;;;;6378154;22;20078;-76
2022/12/26 09:01:43;;;;;;;1999.90;999.90;;;9.90;99.90;;;;;;6378340;22;20097;-76
2022/12/26 09:04:09;;;;;;;1999.90;999.90;;;9.90;99.90;;;;;;6378091;22;20098;-76
2022/12/26 09:06:36;;;;;;;1999.90;999.90;;;9.90;99.90;;;;;;6380706;22;20010;-81
2022/12/26 09:09:03;;;;;;;1999.90;999.90;;;10.00;99.90;;;;;;6355881;22;20002;-78
2022/12/26 09:11:29;;;;;;;1999.90;999.90;;;10.10;99.90;;;;;;6381593;22;19999;-79
2022/12/26 09:13:57;;;;;;;1999.90;999.90;;;10.10;99.90;;;;;;6383083;22;20003;-79
2022/12/26 09:16:41;;;;;;;1999.90;999.90;;;10.10;99.90;;;;;;6383892;22;20469;-80
2022/12/26 09:19:11;;;;;;;1999.90;999.90;;;10.10;99.90;;;;;;6384757;22;20010;-80
2022/12/26 09:21:36;;;;;;;1999.90;999.90;;;10.10;99.90;;;;;;6356686;22;20007;-80
2022/12/26 09:24:05;;;;;;;1999.90;999.90;;;10.20;99.90;;;;;;6358083;22;20461;-83
2022/12/26 09:26:31;;;;;;;1999.90;999.90;;;10.20;99.90;;;;;;6360717;22;20428;-78
2022/12/26 09:28:57;;;;;;;1999.90;999.90;;;10.20;99.90;;;;;;6358575;22;19998;-80
2022/12/26 09:31:28;;;;;;;1999.90;999.90;;;10.20;99.90;;;;;;6361843;22;20018;-81
2022/12/26 09:33:54;;;;;;;1999.90;999.90;;;10.10;99.90;;;;;;6363243;22;20007;-81
2022/12/26 09:36:26;;;;;;;1999.90;999.90;;;10.20;99.90;;;;;;6361271;22;20081;-81
2022/12/26 09:38:55;;;;;;;1999.90;999.90;;;10.10;99.90;;;;;;6386922;22;20030;-81
2022/12/26 09:42:00;;;;;;;1999.90;999.90;;;10.20;99.90;;;;;;6382095;22;20027;-81
2022/12/26 09:44:42;;;;;;;1999.90;999.90;;;10.10;99.90;;;;;;6381711;22;20174;-81
2022/12/26 09:47:30;;;;;;;1999.90;999.90;;;10.10;99.90;;;;;;6355081;22;20105;-80
2022/12/26 09:50:08;;;;;;;1999.90;999.90;;;10.20;99.90;;;;;;6355628;22;20006;-81
2022/12/26 09:52:48;;;;;;;1999.90;999.90;;;10.10;99.90;;;;;;6383050;22;19995;-80
2022/12/26 09:55:36;;;;;;;1999.90;999.90;;;10.10;99.90;;;;;;6356965;22;20080;-80
2022/12/26 09:58:22;;;;;;;1999.90;999.90;;;10.20;99.90;;;;;;6355993;22;20495;-80
2022/12/26 10:00:55;;;;;;;1999.90;999.90;;;10.20;99.90;;;;;;6356204;22;20014;-81
2022/12/26 10:03:22;;;;;;;1999.90;999.90;;;10.20;99.90;;;;;;6355015;22;20014;-79
2022/12/26 10:06:08;;;;;;;1999.90;999.90;;;10.10;99.90;;;;;;6384202;22;20019;-80
2022/12/26 10:08:51;;;;;;;1999.90;999.90;;;10.10;99.90;;;;;;6352988;22;20003;-78
2022/12/26 10:11:33;;;;;;;1999.90;999.90;;;10.20;99.90;;;;;;6356136;22;20013;-77
2022/12/26 10:14:08;;;;;;;1999.90;999.90;;;10.20;99.90;;;;;;6383907;22;20003;-77
2022/12/26 10:17:16;;;;;;;1999.90;999.90;;;10.20;99.90;;;;;;6355195;22;20014;-77
2022/12/26 10:19:45;;;;;;;1999.90;999.90;;;10.20;99.90;;;;;;6310025;22;20088;-78
2022/12/26 10:22:22;;;;;;;1999.90;999.90;;;10.20;99.90;;;;;;6356302;22;20429;-77
2022/12/26 10:24:49;;;;;;;1999.90;999.90;;;10.20;99.90;;;;;;6384935;22;20003;-77
2022/12/26 10:27:17;;;;;;;1999.90;999.90;;;10.20;99.90;;;;;;6385731;22;19987;-78
2022/12/26 10:30:03;;;;;;;1999.90;999.90;;;10.20;99.90;;;;;;6357362;22;20007;-77
2022/12/26 10:32:38;;;;;;;1999.90;999.90;;;10.20;99.90;;;;;;6357453;22;20053;-77
2022/12/26 10:35:22;;;;;;;1999.90;999.90;;;10.10;99.90;;;;;;6358549;22;20491;-77
2022/12/26 10:37:49;;;;;;;1999.90;999.90;;;10.10;99.90;;;;;;6386467;22;20003;-77
2022/12/26 10:40:19;;;;;;;1999.90;999.90;;;10.10;99.90;;;;;;6386492;22;20014;-78
2022/12/26 10:42:54;;;;;;;1999.90;999.90;;;10.10;99.90;;;;;;6387782;22;20005;-77
2022/12/26 10:45:31;;;;;;;1999.90;999.90;;;10.00;99.90;;;;;;6386845;22;20015;-77
2022/12/26 10:47:56;;;;;;;1999.90;999.90;;;10.00;99.90;;;;;;6360065;22;20009;-77
2022/12/26 10:50:26;;;;;;;1999.90;999.90;;;10.10;99.90;;;;;;6387004;22;20389;-77
2022/12/26 10:52:51;;;;;;;1999.90;999.90;;;10.00;99.90;;;;;;6386680;22;20074;-77
2022/12/26 10:55:19;;;;;;;1999.90;999.90;;;10.00;99.90;;;;;;6386822;22;19999;-77
2022/12/26 10:57:51;;;;;;;1999.90;999.90;;;10.00;99.90;;;;;;6359176;22;20006;-77
2022/12/26 11:00:19;;;;;;;1999.90;999.90;;;9.90;99.90;;;;;;6357351;22;20061;-78
2022/12/26 11:02:44;;;;;;;1999.90;999.90;;;10.00;99.90;;;;;;6386064;22;20054;-77
2022/12/26 11:05:21;;;;;;;1999.90;999.90;;;9.90;99.90;;;;;;6357136;22;20065;-77
2022/12/26 11:07:50;;;;;;;1999.90;999.90;;;9.90;99.90;;;;;;6386692;22;20007;-77
2022/12/26 11:10:20;;;;;;;1999.90;999.90;;;9.90;99.90;;;;;;6386374;22;20003;-77
2022/12/26 11:12:54;;;;;;;1999.90;999.90;;;9.90;99.90;;;;;;6385400;22;20805;-77
2022/12/26 11:15:38;;;;;;;1999.90;999.90;;;9.90;99.90;;;;;;6386463;22;20055;-77
2022/12/26 11:18:27;;;;;;;1999.90;999.90;;;9.80;99.90;;;;;;6384467;22;20433;-77
2022/12/26 11:20:53;;;;;;;1999.90;999.90;;;9.80;99.90;;;;;;6355646;22;20468;-77
2022/12/26 11:23:30;;;;;;;1999.90;999.90;;;9.80;99.90;;;;;;6356273;22;20007;-77
2022/12/26 11:25:58;;;;;;;1999.90;999.90;;;9.80;99.90;;;;;;6356961;22;20015;-77
2022/12/26 11:28:35;;;;;;;1999.90;999.90;;;9.80;99.90;;;;;;6385172;22;20003;-77
2022/12/26 11:31:06;;;;;;;1999.90;999.90;;;9.80;99.90;;;;;;6385493;22;20003;-77
2022/12/26 11:33:41;;;;;;;1999.90;999.90;;;9.90;99.90;;;;;;6359646;22;20003;-77
2022/12/26 11:36:16;;;;;;;1999.90;999.90;;;9.90;99.90;;;;;;6387485;22;19995;-77
2022/12/26 11:39:02;;;;;;;1999.90;999.90;;;10.00;99.90;;;;;;6387408;22;20003;-78
2022/12/26 11:41:30;;;;;;;1999.90;999.90;;;10.00;99.90;;;;;;6358868;22;20017;-77
2022/12/26 11:44:12;;;;;;;1999.90;999.90;;;10.10;99.90;;;;;;6358588;22;20007;-77
2022/12/26 11:46:44;;;;;;;1999.90;999.90;;;10.10;99.90;;;;;;6359306;22;20006;-77
2022/12/26 11:50:00;;;;;;;1999.90;999.90;;;10.10;99.90;;;;;;6389198;22;20543;-77
2022/12/26 11:52:53;;;;;;;1999.90;999.90;;;10.10;99.90;;;;;;6313116;22;20472;-77
2022/12/26 11:55:25;;;;;;;1999.90;999.90;;;10.10;99.90;;;;;;6382702;22;20056;-77
2022/12/26 11:58:05;;;;;;;1999.90;999.90;;;10.10;99.90;;;;;;6382388;22;20006;-77
2022/12/26 12:00:57;;;;;;;1999.90;999.90;;;10.20;99.90;;;;;;6354895;22;20721;-77
2022/12/26 12:03:40;;;;;;;1999.90;999.90;;;10.20;99.90;;;;;;6356706;22;20002;-77
2022/12/26 12:06:37;;;;;;;1999.90;999.90;;;10.10;99.90;;;;;;6354916;22;20348;-77
2022/12/26 12:09:39;;;;;;;1999.90;999.90;;;10.10;99.90;;;;;;6383070;22;20007;-77
2022/12/26 12:12:17;;;;;;;1999.90;999.90;;;10.00;99.90;;;;;;6354542;22;20011;-77
2022/12/26 12:15:08;;;;;;;1999.90;999.90;;;10.00;99.90;;;;;;6381908;22;20002;-77
2022/12/26 12:18:10;;;;;;;1999.90;999.90;;;10.00;99.90;;;;;;6381673;22;20003;-77
2022/12/26 12:20:58;;;;;;;1999.90;999.90;;;10.00;99.90;;;;;;6352748;22;20792;-77
2022/12/26 12:23:54;;;;;;;1999.90;999.90;;;10.00;99.90;;;;;;6352962;22;20416;-77
2022/12/26 12:26:39;;;;;;;1999.90;999.90;;;10.00;99.90;;;;;;6381307;22;20358;-77
2022/12/26 12:29:38;;;;;;;1999.90;999.90;;;10.00;99.90;;;;;;6382783;22;20014;-77
2022/12/26 12:32:08;;;;;;;1999.90;999.90;;;10.00;99.90;;;;;;6354270;22;20081;-77
2022/12/26 12:34:45;;;;;;;1999.90;999.90;;;10.10;99.90;;;;;;6382596;22;20069;-77
2022/12/26 12:37:19;;;;;;;1999.90;999.90;;;10.20;99.90;;;;;;6353720;22;20341;-77
2022/12/26 12:40:16;;;;;;;1999.90;999.90;;;10.10;99.90;;;;;;6357577;22;20433;-77
2022/12/26 12:42:53;;;;;;;1999.90;999.90;;;10.20;99.90;;;;;;6384582;22;20007;-77
2022/12/26 12:45:38;;;;;;;1999.90;999.90;;;10.20;99.90;;;;;;6357327;22;20041;-77
2022/12/26 12:48:32;;;;;;;1999.90;999.90;;;10.20;99.90;;;;;;6356425;22;20484;-77
2022/12/26 12:51:22;;;;;;;1999.90;999.90;;;10.20;99.90;;;;;;6356600;22;20098;-77
2022/12/26 12:54:15;;;;;;;1999.90;999.90;;;10.10;99.90;;;;;;6384393;22;20376;-77
2022/12/26 12:57:05;;;;;;;1999.90;999.90;;;10.10;99.90;;;;;;6384232;22;20527;-77
2022/12/26 12:59:33;;;;;;;1999.90;999.90;;;10.00;99.90;;;;;;6356560;22;20002;-77
2022/12/26 13:02:05;;;;;;;1999.90;999.90;;;10.00;99.90;;;;;;6382385;22;20084;-77
2022/12/26 13:04:42;;;;;;;1999.90;999.90;;;10.10;99.90;;;;;;6354947;22;20015;-77
2022/12/26 13:07:18;;;;;;;1999.90;999.90;;;10.10;99.90;;;;;;6355674;22;20002;-77
2022/12/26 13:09:49;;;;;;;1999.90;999.90;;;10.00;99.90;;;;;;6384658;22;20082;-77
2022/12/26 13:12:38;;;;;;;1999.90;999.90;;;10.10;99.90;;;;;;6356508;22;20508;-77
2022/12/26 13:15:30;;;;;;;1999.90;999.90;;;10.10;99.90;;;;;;6384258;22;20009;-77
2022/12/26 13:18:10;;;;;;;1999.90;999.90;;;10.10;99.90;;;;;;6383443;22;20086;-77
2022/12/26 13:20:44;;;;;;;1999.90;999.90;;;10.00;99.90;;;;;;6355721;22;20085;-78
2022/12/26 13:26:29;;;;;;;1999.90;999.90;;;10.00;99.90;;;;;;6383029;22;20026;-77
2022/12/26 13:29:21;;;;;;;1999.90;999.90;;;10.00;99.90;;;;;;6355087;22;20045;-77
2022/12/26 13:31:47;;;;;;;1999.90;999.90;;;10.00;99.90;;;;;;6382242;22;19999;-77
2022/12/26 13:34:17;;;;;;;1999.90;999.90;;;10.00;99.90;;;;;;6382066;22;20005;-77
2022/12/26 13:36:49;;;;;;;1999.90;999.90;;;10.00;99.90;;;;;;6381419;22;20007;-77
2022/12/26 13:39:20;;;;;;;1999.90;999.90;;;10.00;99.90;;;;;;6354996;22;20018;-77
2022/12/26 13:44:35;;;;;;;1999.90;999.90;;;10.10;99.90;;;;;;6387163;22;20003;-78
2022/12/26 13:47:00;;;;;;;1999.90;999.90;;;9.90;99.90;;;;;;6387418;22;20003;-77
2022/12/26 13:49:26;;;;;;;1999.90;999.90;;;9.90;99.90;;;;;;6361227;22;20017;-77
2022/12/26 13:51:53;;;;;;;1999.90;999.90;;;9.90;99.90;;;;;;6360891;22;19999;-77
2022/12/26 13:54:20;;;;;;;1999.90;999.90;;;9.80;99.90;;;;;;6360415;22;20057;-78
2022/12/26 13:57:04;;;;;;;1999.90;999.90;;;9.80;99.90;;;;;;6387505;22;20042;-77
2022/12/26 13:59:40;;;;;;;1999.90;999.90;;;9.80;99.90;;;;;;6360328;22;20102;-78
2022/12/26 14:02:59;;;;;;;1999.90;999.90;;;9.80;99.90;;;;;;6388004;22;20459;-78
2022/12/26 14:05:31;;;;;;;1999.90;999.90;;;9.80;99.90;;;;;;6360038;22;20006;-77
2022/12/26 14:08:19;;;;;;;1999.90;999.90;;;9.80;99.90;;;;;;6359340;22;20006;-77
2022/12/26 14:11:31;;;;;;;1999.90;999.90;;;9.80;99.90;;;;;;6386392;22;20033;-78
2022/12/26 14:14:20;;;;;;;1999.90;999.90;;;9.80;99.90;;;;;;6360950;22;20010;-77
2022/12/26 14:17:12;;;;;;;1999.90;999.90;;;9.90;99.90;;;;;;6362360;22;20041;-78
2022/12/26 14:19:50;;;;;;;1999.90;999.90;;;9.90;99.90;;;;;;6390891;22;20001;-78
2022/12/26 14:22:35;;;;;;;1999.90;999.90;;;9.80;99.90;;;;;;6391027;22;19999;-77
2022/12/26 14:25:26;;;;;;;1999.90;999.90;;;9.80;99.90;;;;;;6360614;22;20449;-78
2022/12/26 14:28:05;;;;;;;1999.90;999.90;;;9.80;99.90;;;;;;6360862;22;20013;-77
2022/12/26 14:30:51;;;;;;;1999.90;999.90;;;9.80;99.90;;;;;;6360682;22;20070;-77
2022/12/26 14:33:38;;;;;;;1999.90;999.90;;;9.80;99.90;;;;;;6360536;22;19987;-77
2022/12/26 14:36:43;;;;;;;1999.90;999.90;;;9.70;99.90;;;;;;6359463;22;20013;-77
2022/12/26 14:39:30;;;;;;;1999.90;999.90;;;9.70;99.90;;;;;;6388130;22;20002;-78
2022/12/26 14:44:53;;;;;;;1999.90;999.90;;;9.70;99.90;;;;;;6388321;22;20003;-77
2022/12/26 14:47:42;;;;;;;1999.90;999.90;;;9.70;99.90;;;;;;6359509;22;19999;-78
2022/12/26 14:50:37;;;;;;;1999.90;999.90;;;9.70;99.90;;;;;;6388985;22;20011;-77
2022/12/26 14:53:27;;;;;;;1999.90;999.90;;;9.70;99.90;;;;;;6360689;22;20014;-78
2022/12/26 14:56:12;;;;;;;1999.90;999.90;;;9.60;99.90;;;;;;6387784;22;20007;-78
2022/12/26 14:58:51;;;;;;;1999.90;999.90;;;9.60;99.90;;;;;;6359815;22;20471;-78
2022/12/26 15:01:19;;;;;;;1999.90;999.90;;;9.60;99.90;;;;;;6388366;22;20015;-77
2022/12/26 15:04:13;;;;;;;1999.90;999.90;;;9.60;99.90;;;;;;6360611;22;20002;-77
2022/12/26 15:07:20;;;;;;;1999.90;999.90;;;9.60;99.90;;;;;;6358474;22;20025;-77
2022/12/26 15:10:17;;;;;;;1999.90;999.90;;;9.60;99.90;;;;;;6228615;23;20002;-78
2022/12/26 15:12:55;;;;;;;1999.90;999.90;;;9.60;99.90;;;;;;6228656;23;20042;-77
2022/12/26 15:15:36;;;;;;;1999.90;999.90;;;9.60;99.90;;;;;;6347521;22;19999;-77
2022/12/26 15:18:44;;;;;;;1999.90;999.90;;;9.60;99.90;;;;;;6358350;22;19991;-77
2022/12/26 15:21:28;;;;;;;1999.90;999.90;;;9.60;99.90;;;;;;6360866;22;20014;-77
2022/12/26 15:24:08;;;;;;;1999.90;999.90;;;9.60;99.90;;;;;;6389743;22;20387;-77
2022/12/26 15:26:45;;;;;;;1999.90;999.90;;;9.60;99.90;;;;;;6361032;22;20853;-77
2022/12/26 15:29:22;;;;;;;1999.90;999.90;;;9.60;99.90;;;;;;6361243;22;20014;-77
2022/12/26 15:32:13;;;;;;;1999.90;999.90;;;9.60;99.90;;;;;;6360740;22;20032;-77
2022/12/26 15:34:48;;;;;;;1999.90;999.90;;;9.60;99.90;;;;;;6360891;22;20002;-77
2022/12/26 15:37:16;;;;;;;1999.90;999.90;;;9.70;99.90;;;;;;6389248;22;20021;-77
2022/12/26 15:39:48;;;;;;;1999.90;999.90;;;9.70;99.90;;;;;;6389091;22;20385;-77
2022/12/26 15:42:33;;;;;;;1999.90;999.90;;;9.80;99.90;;;;;;6388988;22;20071;-77
2022/12/26 15:45:13;;;;;;;1999.90;999.90;;;9.80;99.90;;;;;;6361350;22;20060;-77
2022/12/26 15:48:15;;;;;;;1999.90;999.90;;;9.70;99.90;;;;;;6358609;22;20090;-77
2022/12/26 15:50:40;;;;;;;1999.90;999.90;;;9.70;99.90;;;;;;6356903;22;20033;-77
2022/12/26 15:53:13;;;;;;;1999.90;999.90;;;9.70;99.90;;;;;;6350190;22;20013;-77
2022/12/26 15:55:54;;;;;;;1999.90;999.90;;;9.70;99.90;;;;;;6350009;22;20064;-78
2022/12/26 15:58:35;;;;;;;1999.90;999.90;;;9.80;99.90;;;;;;6378484;22;20003;-78
2022/12/26 16:01:01;;;;;;;1999.90;999.90;;;9.80;99.90;;;;;;6349772;22;20489;-79
2022/12/26 16:03:45;;;;;;;1999.90;999.90;;;9.80;99.90;;;;;;6378041;22;19999;-79
2022/12/26 16:06:35;;;;;;;1999.90;999.90;;;9.80;99.90;;;;;;6378340;22;20407;-78
2022/12/26 16:09:07;;;;;;;1999.90;999.90;;;9.80;99.90;;;;;;6350005;22;20003;-79
2022/12/26 16:11:53;;;;;;;1999.90;999.90;;;9.80;99.90;;;;;;6377905;22;20398;-78
2022/12/26 16:14:26;;;;;;;1999.90;999.90;;;9.80;99.90;;;;;;6378280;22;19999;-79
2022/12/26 16:16:51;;;;;;;1999.90;999.90;;;9.70;99.90;;;;;;6377833;22;20007;-80
2022/12/26 16:19:21;;;;;;;1999.90;999.90;;;9.60;99.90;;;;;;6378308;22;20097;-78
2022/12/26 16:24:38;;;;;;;1999.90;999.90;;;9.60;99.90;;;;;;6378113;22;20444;-79
2022/12/26 16:27:06;;;;;;;1999.90;999.90;;;9.70;99.90;;;;;;6377779;22;20030;-78
2022/12/26 16:29:33;;;;;;;1999.90;999.90;;;9.70;99.90;;;;;;6378242;22;20402;-78
2022/12/26 16:32:06;;;;;;;1999.90;999.90;;;9.80;99.90;;;;;;6377586;22;20057;-78
2022/12/26 16:34:35;;;;;;;1999.90;999.90;;;9.80;99.90;;;;;;6377981;22;20010;-79
2022/12/26 16:37:01;;;;;;;1999.90;999.90;;;9.90;99.90;;;;;;6377760;22;20092;-78
2022/12/26 16:39:27;;;;;;;1999.90;999.90;;;9.90;99.90;;;;;;6378031;22;20007;-79
2022/12/26 16:42:05;;;;;;;1999.90;999.90;;;9.90;99.90;;;;;;6349581;22;20078;-78
2022/12/26 16:44:39;;;;;;;1999.90;999.90;;;9.90;99.90;;;;;;6349926;22;20011;-78
2022/12/26 16:47:11;;;;;;;1999.90;999.90;;;9.90;99.90;;;;;;6377757;22;20316;-78
2022/12/26 16:49:40;;;;;;;1999.90;999.90;;;9.90;99.90;;;;;;6377422;22;20003;-78
2022/12/26 16:52:06;;;;;;;1999.90;999.90;;;9.90;99.90;;;;;;6349497;22;19995;-78
2022/12/26 16:54:41;;;;;;;1999.90;999.90;;;9.80;99.90;;;;;;6377932;22;20023;-80
2022/12/26 16:57:14;;;;;;;1999.90;999.90;;;9.80;99.90;;;;;;6377510;22;19999;-80
2022/12/26 16:59:58;;;;;;;1999.90;999.90;;;9.70;99.90;;;;;;6378322;22;20410;-79
2022/12/26 17:02:28;;;;;;;1999.90;999.90;;;9.60;99.90;;;;;;6377807;22;20018;-78
2022/12/26 17:04:59;;;;;;;1999.90;999.90;;;9.70;99.90;;;;;;6378080;22;20022;-78
2022/12/26 17:07:25;;;;;;;1999.90;999.90;;;9.70;99.90;;;;;;6349778;22;20003;-80
2022/12/26 17:09:55;;;;;;;1999.90;999.90;;;9.70;99.90;;;;;;6350013;22;20015;-80
2022/12/26 17:12:29;;;;;;;1999.90;999.90;;;9.60;99.90;;;;;;6377495;22;20011;-78
2022/12/26 17:14:57;;;;;;;1999.90;999.90;;;9.60;99.90;;;;;;6378625;22;20017;-78
2022/12/26 17:17:23;;;;;;;1999.90;999.90;;;9.60;99.90;;;;;;6377520;22;20030;-78
2022/12/26 17:19:54;;;;;;;1999.90;999.90;;;9.60;99.90;;;;;;6349681;22;20014;-79
2022/12/26 17:22:35;;;;;;;1999.90;999.90;;;9.60;99.90;;;;;;6349675;22;20015;-78
2022/12/26 17:25:26;;;;;;;1999.90;999.90;;;9.60;99.90;;;;;;6377684;22;20011;-78
2022/12/26 17:28:11;;;;;;;1999.90;999.90;;;9.60;99.90;;;;;;6349464;22;20146;-78
2022/12/26 17:30:47;;;;;;;1999.90;999.90;;;9.60;99.90;;;;;;6378041;22;20014;-78
2022/12/26 17:33:21;;;;;;;1999.90;999.90;;;9.60;99.90;;;;;;6349755;22;20006;-78
2022/12/26 17:35:55;;;;;;;1999.90;999.90;;;9.60;99.90;;;;;;6350287;22;20011;-78
2022/12/26 17:38:24;;;;;;;1999.90;999.90;;;9.60;99.90;;;;;;6378870;22;19998;-78
2022/12/26 17:40:56;;;;;;;1999.90;999.90;;;9.70;99.90;;;;;;6378675;22;20013;-78
2022/12/26 17:43:29;;;;;;;1999.90;999.90;;;9.70;99.90;;;;;;6377979;22;20022;-78
2022/12/26 17:45:55;;;;;;;1999.90;999.90;;;9.70;99.90;;;;;;6377634;22;20011;-78
2022/12/26 17:48:20;;;;;;;1999.90;999.90;;;9.70;99.90;;;;;;6378420;22;20076;-78
2022/12/26 17:50:48;;;;;;;1999.90;999.90;;;9.70;99.90;;;;;;6379699;22;20110;-79
2022/12/26 17:53:31;;;;;;;1999.90;999.90;;;9.60;99.90;;;;;;6377555;22;20485;-78
2022/12/26 17:56:00;;;;;;;1999.90;999.90;;;9.70;99.90;;;;;;6349264;22;20014;-79
2022/12/26 17:58:26;;;;;;;1999.90;999.90;;;9.70;99.90;;;;;;6377552;22;19999;-78
2022/12/26 18:00:52;;;;;;;1999.90;999.90;;;9.60;99.90;;;;;;6349118;22;20094;-79
2022/12/26 18:03:18;;;;;;;1999.90;999.90;;;9.60;99.90;;;;;;6350078;22;20098;-78
2022/12/26 18:05:45;;;;;;;1999.90;999.90;;;9.60;99.90;;;;;;6349599;22;20342;-78
2022/12/26 18:08:32;;;;;;;1999.90;999.90;;;9.50;99.90;;;;;;6349363;22;20056;-78
2022/12/26 18:10:58;;;;;;;1999.90;999.90;;;9.50;99.90;;;;;;6351795;22;20054;-80
2022/12/26 18:13:24;;;;;;;1999.90;999.90;;;9.50;99.90;;;;;;6350124;22;20011;-79